الصفحة الرئيسية
METAR-TAF:

METAR-TAF

مطار :

فونافوتي, توفالو

دائرة عرض: 08-31S, خط طول: 179-13E, ارتفاع: 1 متر

مراقبة الطقس الحالي

تاريخ ووقت الإصدار 24 دقيقة قبل الساعة 15:00UTC
ريح 6 عقدة من الشمال
درجة الحرارة 30°درجة مئوية
الرطوبة 75%
ضغط 1006 hPa
الرؤية 10 كم أو أكثر
غيوم قليلة على ارتفاع 1900 قدم
غيوم مفككة على ارتفاع 30000 قدم

METAR: NGFU 231500Z 01006KT 9999 FEW019 BKN300 30/25 Q1006

زمن: 03:24 (15:24 UTC)

توقعات

تاريخ ووقت الإصدار 4ساعات و 13 دقيقة قبل الساعة 11:11UTC
التوقعات صالحة من23 الساعة 12 UTC إلى 24 الساعة 12 UTC
ريح 5 عقدة من الشمال
الرؤية 10 كم أو أكثر
غيوم قليلة على ارتفاع 2000 قدم
غيوم متفرقة على ارتفاع 10000 قدم

TAF: NGFU 231111Z 2312/2412 01005KT 9999 FEW020 SCT100

أرصاد الطقس والتوقعات من أكثر من 4000 مطار (تقارير الطقس للمطار METAR والتنبؤ بالطقس بالمطارTAF).

المحطات المتاحة هي النقط الصفراء والحمراء على الخريطة.

حرك المؤشر فوق النقطة لمعرفة اسم المحطة.

ثم انقر لمعرفة أرصاد وتوقعات الطقس.

لتغيير الخارطة: اضغط على الأزرار الخضراء مع رمز الصليب الأسود للتكبير. على الزر الأخضر مع شرطة للتصغير، أو على الأسهم الخضراء للخرائط المجاورة.


METAR-TAF: